sensor_id;sensor_type;location;lat;lon;timestamp;P1;durP1;ratioP1;P2;durP2;ratioP2
10469;SDS011;5282;47.052;15.458;2024-03-22T00:02:21;2.43;;;1.90;;
10469;SDS011;5282;47.052;15.458;2024-03-22T00:04:48;1.50;;;1.50;;
10469;SDS011;5282;47.052;15.458;2024-03-22T00:07:16;1.40;;;1.40;;
10469;SDS011;5282;47.052;15.458;2024-03-22T00:09:45;1.60;;;1.60;;
10469;SDS011;5282;47.052;15.458;2024-03-22T00:12:11;1.40;;;1.40;;
10469;SDS011;5282;47.052;15.458;2024-03-22T00:14:38;1.50;;;1.50;;
10469;SDS011;5282;47.052;15.458;2024-03-22T00:17:04;1.50;;;1.50;;
10469;SDS011;5282;47.052;15.458;2024-03-22T00:19:31;1.60;;;1.50;;
10469;SDS011;5282;47.052;15.458;2024-03-22T00:21:56;1.67;;;1.67;;
10469;SDS011;5282;47.052;15.458;2024-03-22T00:24:25;1.70;;;1.70;;
10469;SDS011;5282;47.052;15.458;2024-03-22T00:26:50;1.70;;;1.70;;
10469;SDS011;5282;47.052;15.458;2024-03-22T00:29:17;1.50;;;1.50;;
10469;SDS011;5282;47.052;15.458;2024-03-22T00:31:43;1.60;;;1.60;;
10469;SDS011;5282;47.052;15.458;2024-03-22T00:34:10;1.50;;;1.50;;
10469;SDS011;5282;47.052;15.458;2024-03-22T00:36:36;1.90;;;1.80;;
10469;SDS011;5282;47.052;15.458;2024-03-22T00:39:06;1.90;;;1.80;;
10469;SDS011;5282;47.052;15.458;2024-03-22T00:41:33;1.70;;;1.60;;
10469;SDS011;5282;47.052;15.458;2024-03-22T00:44:00;2.03;;;1.93;;
10469;SDS011;5282;47.052;15.458;2024-03-22T00:46:26;1.77;;;1.77;;
10469;SDS011;5282;47.052;15.458;2024-03-22T00:48:52;2.27;;;2.17;;
10469;SDS011;5282;47.052;15.458;2024-03-22T00:51:18;1.80;;;1.80;;
10469;SDS011;5282;47.052;15.458;2024-03-22T00:53:45;1.83;;;1.73;;
10469;SDS011;5282;47.052;15.458;2024-03-22T00:56:11;2.00;;;1.90;;
10469;SDS011;5282;47.052;15.458;2024-03-22T00:58:39;1.80;;;1.80;;
10469;SDS011;5282;47.052;15.458;2024-03-22T01:01:05;2.00;;;1.93;;
10469;SDS011;5282;47.052;15.458;2024-03-22T01:03:32;1.97;;;1.97;;
10469;SDS011;5282;47.052;15.458;2024-03-22T01:05:58;1.90;;;1.90;;
10469;SDS011;5282;47.052;15.458;2024-03-22T01:08:24;1.90;;;1.90;;
10469;SDS011;5282;47.052;15.458;2024-03-22T01:10:50;1.70;;;1.70;;
10469;SDS011;5282;47.052;15.458;2024-03-22T01:13:17;1.60;;;1.60;;
10469;SDS011;5282;47.052;15.458;2024-03-22T01:15:44;1.80;;;1.80;;
10469;SDS011;5282;47.052;15.458;2024-03-22T01:18:12;1.90;;;1.90;;
10469;SDS011;5282;47.052;15.458;2024-03-22T01:20:39;1.60;;;1.60;;
10469;SDS011;5282;47.052;15.458;2024-03-22T01:23:07;1.90;;;1.90;;
10469;SDS011;5282;47.052;15.458;2024-03-22T01:25:33;2.10;;;1.90;;
10469;SDS011;5282;47.052;15.458;2024-03-22T01:28:00;2.13;;;2.03;;
10469;SDS011;5282;47.052;15.458;2024-03-22T01:30:26;2.00;;;1.90;;
10469;SDS011;5282;47.052;15.458;2024-03-22T01:32:55;1.90;;;1.90;;
10469;SDS011;5282;47.052;15.458;2024-03-22T01:35:21;2.23;;;2.13;;
10469;SDS011;5282;47.052;15.458;2024-03-22T01:37:48;2.00;;;2.00;;
10469;SDS011;5282;47.052;15.458;2024-03-22T01:40:14;1.90;;;1.80;;
10469;SDS011;5282;47.052;15.458;2024-03-22T01:42:41;2.13;;;2.03;;
10469;SDS011;5282;47.052;15.458;2024-03-22T01:45:07;2.00;;;2.00;;
10469;SDS011;5282;47.052;15.458;2024-03-22T01:47:35;1.80;;;1.80;;
10469;SDS011;5282;47.052;15.458;2024-03-22T01:50:02;2.33;;;2.23;;
10469;SDS011;5282;47.052;15.458;2024-03-22T01:52:30;2.07;;;2.07;;
10469;SDS011;5282;47.052;15.458;2024-03-22T01:54:56;1.97;;;1.87;;
10469;SDS011;5282;47.052;15.458;2024-03-22T01:57:23;2.53;;;2.40;;
10469;SDS011;5282;47.052;15.458;2024-03-22T01:59:49;2.33;;;2.23;;
10469;SDS011;5282;47.052;15.458;2024-03-22T02:02:20;2.03;;;1.93;;
10469;SDS011;5282;47.052;15.458;2024-03-22T02:04:50;2.47;;;2.30;;
10469;SDS011;5282;47.052;15.458;2024-03-22T02:07:18;2.30;;;2.20;;
10469;SDS011;5282;47.052;15.458;2024-03-22T02:09:44;2.60;;;2.50;;
10469;SDS011;5282;47.052;15.458;2024-03-22T02:12:11;2.47;;;2.37;;
10469;SDS011;5282;47.052;15.458;2024-03-22T02:14:37;2.40;;;2.20;;
10469;SDS011;5282;47.052;15.458;2024-03-22T02:17:04;2.40;;;2.30;;
10469;SDS011;5282;47.052;15.458;2024-03-22T02:19:30;3.40;;;2.30;;
10469;SDS011;5282;47.052;15.458;2024-03-22T02:21:56;2.27;;;2.17;;
10469;SDS011;5282;47.052;15.458;2024-03-22T02:24:24;2.80;;;2.60;;
10469;SDS011;5282;47.052;15.458;2024-03-22T02:26:51;2.20;;;2.10;;
10469;SDS011;5282;47.052;15.458;2024-03-22T02:29:16;2.00;;;2.00;;
10469;SDS011;5282;47.052;15.458;2024-03-22T02:31:43;2.63;;;2.53;;
10469;SDS011;5282;47.052;15.458;2024-03-22T02:34:09;2.67;;;2.57;;
10469;SDS011;5282;47.052;15.458;2024-03-22T02:36:36;2.40;;;2.30;;
10469;SDS011;5282;47.052;15.458;2024-03-22T02:39:02;3.90;;;2.33;;
10469;SDS011;5282;47.052;15.458;2024-03-22T02:41:31;2.27;;;2.17;;
10469;SDS011;5282;47.052;15.458;2024-03-22T02:43:57;2.23;;;2.13;;
10469;SDS011;5282;47.052;15.458;2024-03-22T02:46:24;2.17;;;2.07;;
10469;SDS011;5282;47.052;15.458;2024-03-22T02:48:50;2.13;;;2.03;;
10469;SDS011;5282;47.052;15.458;2024-03-22T02:51:17;2.03;;;2.00;;
10469;SDS011;5282;47.052;15.458;2024-03-22T02:53:43;2.30;;;2.20;;
10469;SDS011;5282;47.052;15.458;2024-03-22T02:56:10;2.30;;;1.90;;
10469;SDS011;5282;47.052;15.458;2024-03-22T02:58:37;1.90;;;1.80;;
10469;SDS011;5282;47.052;15.458;2024-03-22T03:01:03;2.03;;;1.93;;
10469;SDS011;5282;47.052;15.458;2024-03-22T03:03:31;2.30;;;2.20;;
10469;SDS011;5282;47.052;15.458;2024-03-22T03:05:58;1.90;;;1.80;;
10469;SDS011;5282;47.052;15.458;2024-03-22T03:08:25;2.27;;;2.17;;
10469;SDS011;5282;47.052;15.458;2024-03-22T03:10:52;2.13;;;2.03;;
10469;SDS011;5282;47.052;15.458;2024-03-22T03:13:20;2.40;;;2.30;;
10469;SDS011;5282;47.052;15.458;2024-03-22T03:15:51;2.20;;;2.00;;
10469;SDS011;5282;47.052;15.458;2024-03-22T03:18:18;2.10;;;2.00;;
10469;SDS011;5282;47.052;15.458;2024-03-22T03:20:44;2.00;;;2.00;;
10469;SDS011;5282;47.052;15.458;2024-03-22T03:23:12;2.33;;;2.00;;
10469;SDS011;5282;47.052;15.458;2024-03-22T03:25:39;3.43;;;2.00;;
10469;SDS011;5282;47.052;15.458;2024-03-22T03:28:06;2.13;;;2.03;;
10469;SDS011;5282;47.052;15.458;2024-03-22T03:30:38;1.70;;;1.70;;
10469;SDS011;5282;47.052;15.458;2024-03-22T03:33:13;2.03;;;1.97;;
10469;SDS011;5282;47.052;15.458;2024-03-22T03:35:39;2.20;;;2.10;;
10469;SDS011;5282;47.052;15.458;2024-03-22T03:38:05;2.10;;;2.00;;
10469;SDS011;5282;47.052;15.458;2024-03-22T03:40:32;2.23;;;2.03;;
10469;SDS011;5282;47.052;15.458;2024-03-22T03:42:58;1.87;;;1.87;;
10469;SDS011;5282;47.052;15.458;2024-03-22T03:45:25;2.20;;;2.10;;
10469;SDS011;5282;47.052;15.458;2024-03-22T03:47:51;2.10;;;2.00;;
10469;SDS011;5282;47.052;15.458;2024-03-22T03:50:19;2.30;;;2.17;;
10469;SDS011;5282;47.052;15.458;2024-03-22T03:52:45;2.07;;;2.07;;
10469;SDS011;5282;47.052;15.458;2024-03-22T03:55:12;2.27;;;2.07;;
10469;SDS011;5282;47.052;15.458;2024-03-22T03:57:38;2.03;;;2.03;;
10469;SDS011;5282;47.052;15.458;2024-03-22T04:00:05;2.27;;;2.17;;
10469;SDS011;5282;47.052;15.458;2024-03-22T04:02:32;2.17;;;2.07;;
10469;SDS011;5282;47.052;15.458;2024-03-22T04:05:03;2.10;;;2.10;;
10469;SDS011;5282;47.052;15.458;2024-03-22T04:07:32;2.03;;;2.03;;
10469;SDS011;5282;47.052;15.458;2024-03-22T04:10:02;2.07;;;2.00;;
10469;SDS011;5282;47.052;15.458;2024-03-22T04:12:32;2.13;;;2.03;;
10469;SDS011;5282;47.052;15.458;2024-03-22T04:15:03;2.20;;;2.10;;
10469;SDS011;5282;47.052;15.458;2024-03-22T04:17:31;2.00;;;1.90;;
10469;SDS011;5282;47.052;15.458;2024-03-22T04:20:04;2.30;;;2.20;;
10469;SDS011;5282;47.052;15.458;2024-03-22T04:22:34;2.13;;;2.03;;
10469;SDS011;5282;47.052;15.458;2024-03-22T04:25:11;2.20;;;2.10;;
10469;SDS011;5282;47.052;15.458;2024-03-22T04:27:43;2.30;;;2.10;;
10469;SDS011;5282;47.052;15.458;2024-03-22T04:30:30;2.10;;;2.00;;
10469;SDS011;5282;47.052;15.458;2024-03-22T04:32:58;2.10;;;2.07;;
10469;SDS011;5282;47.052;15.458;2024-03-22T04:35:25;2.00;;;1.90;;
10469;SDS011;5282;47.052;15.458;2024-03-22T04:37:54;2.33;;;2.20;;
10469;SDS011;5282;47.052;15.458;2024-03-22T04:40:21;2.37;;;2.27;;
10469;SDS011;5282;47.052;15.458;2024-03-22T04:42:48;1.77;;;1.77;;
10469;SDS011;5282;47.052;15.458;2024-03-22T04:45:18;2.03;;;1.93;;
10469;SDS011;5282;47.052;15.458;2024-03-22T04:47:47;2.47;;;2.20;;
10469;SDS011;5282;47.052;15.458;2024-03-22T04:50:13;2.30;;;2.13;;
10469;SDS011;5282;47.052;15.458;2024-03-22T04:52:40;5.10;;;2.30;;
10469;SDS011;5282;47.052;15.458;2024-03-22T04:55:08;3.53;;;2.30;;
10469;SDS011;5282;47.052;15.458;2024-03-22T04:57:35;2.57;;;2.47;;
10469;SDS011;5282;47.052;15.458;2024-03-22T05:00:02;2.27;;;2.17;;
10469;SDS011;5282;47.052;15.458;2024-03-22T05:02:34;2.40;;;2.20;;
10469;SDS011;5282;47.052;15.458;2024-03-22T05:05:00;4.70;;;2.30;;
10469;SDS011;5282;47.052;15.458;2024-03-22T05:07:28;2.70;;;2.50;;
10469;SDS011;5282;47.052;15.458;2024-03-22T05:09:54;2.33;;;2.13;;
10469;SDS011;5282;47.052;15.458;2024-03-22T05:12:22;2.30;;;2.20;;
10469;SDS011;5282;47.052;15.458;2024-03-22T05:14:48;3.10;;;2.60;;
10469;SDS011;5282;47.052;15.458;2024-03-22T05:17:15;2.83;;;2.73;;
10469;SDS011;5282;47.052;15.458;2024-03-22T05:19:41;2.83;;;2.73;;
10469;SDS011;5282;47.052;15.458;2024-03-22T05:22:07;2.70;;;2.60;;
10469;SDS011;5282;47.052;15.458;2024-03-22T05:24:33;3.13;;;2.93;;
10469;SDS011;5282;47.052;15.458;2024-03-22T05:27:00;2.80;;;2.60;;
10469;SDS011;5282;47.052;15.458;2024-03-22T05:29:28;3.30;;;2.60;;
10469;SDS011;5282;47.052;15.458;2024-03-22T05:31:55;2.80;;;2.57;;
10469;SDS011;5282;47.052;15.458;2024-03-22T05:34:22;2.70;;;2.60;;
10469;SDS011;5282;47.052;15.458;2024-03-22T05:36:49;3.10;;;2.90;;
10469;SDS011;5282;47.052;15.458;2024-03-22T05:39:15;2.57;;;2.47;;
10469;SDS011;5282;47.052;15.458;2024-03-22T05:41:42;2.80;;;2.60;;
10469;SDS011;5282;47.052;15.458;2024-03-22T05:44:08;2.77;;;2.67;;
10469;SDS011;5282;47.052;15.458;2024-03-22T05:46:36;2.77;;;2.47;;
10469;SDS011;5282;47.052;15.458;2024-03-22T05:49:04;3.03;;;2.90;;
10469;SDS011;5282;47.052;15.458;2024-03-22T05:51:31;2.63;;;2.43;;
10469;SDS011;5282;47.052;15.458;2024-03-22T05:53:57;3.80;;;2.60;;
10469;SDS011;5282;47.052;15.458;2024-03-22T05:56:24;2.93;;;2.73;;
10469;SDS011;5282;47.052;15.458;2024-03-22T05:58:50;2.90;;;2.70;;
10469;SDS011;5282;47.052;15.458;2024-03-22T06:01:17;8.00;;;3.10;;
10469;SDS011;5282;47.052;15.458;2024-03-22T06:03:44;3.13;;;2.93;;
10469;SDS011;5282;47.052;15.458;2024-03-22T06:06:11;3.03;;;2.83;;
10469;SDS011;5282;47.052;15.458;2024-03-22T06:08:37;2.80;;;2.60;;
10469;SDS011;5282;47.052;15.458;2024-03-22T06:11:06;2.90;;;2.70;;
10469;SDS011;5282;47.052;15.458;2024-03-22T06:13:32;5.53;;;3.50;;
10469;SDS011;5282;47.052;15.458;2024-03-22T06:16:00;3.73;;;3.53;;
10469;SDS011;5282;47.052;15.458;2024-03-22T06:18:26;3.83;;;3.50;;
10469;SDS011;5282;47.052;15.458;2024-03-22T06:20:54;3.93;;;3.63;;
10469;SDS011;5282;47.052;15.458;2024-03-22T06:23:20;3.97;;;3.70;;
10469;SDS011;5282;47.052;15.458;2024-03-22T06:25:50;3.70;;;3.27;;
10469;SDS011;5282;47.052;15.458;2024-03-22T06:28:17;3.93;;;3.23;;
10469;SDS011;5282;47.052;15.458;2024-03-22T06:30:44;6.03;;;3.47;;
10469;SDS011;5282;47.052;15.458;2024-03-22T06:33:10;3.77;;;3.23;;
10469;SDS011;5282;47.052;15.458;2024-03-22T06:35:37;3.83;;;3.13;;
10469;SDS011;5282;47.052;15.458;2024-03-22T06:38:04;2.90;;;2.80;;
10469;SDS011;5282;47.052;15.458;2024-03-22T06:40:31;3.67;;;3.00;;
10469;SDS011;5282;47.052;15.458;2024-03-22T06:42:57;3.07;;;2.93;;
10469;SDS011;5282;47.052;15.458;2024-03-22T06:45:24;3.50;;;3.17;;
10469;SDS011;5282;47.052;15.458;2024-03-22T06:47:50;3.17;;;2.97;;
10469;SDS011;5282;47.052;15.458;2024-03-22T06:50:17;3.70;;;3.43;;
10469;SDS011;5282;47.052;15.458;2024-03-22T06:52:43;3.53;;;2.80;;
10469;SDS011;5282;47.052;15.458;2024-03-22T06:55:12;3.40;;;3.20;;
10469;SDS011;5282;47.052;15.458;2024-03-22T06:57:38;5.20;;;3.10;;
10469;SDS011;5282;47.052;15.458;2024-03-22T07:00:05;3.20;;;2.83;;
10469;SDS011;5282;47.052;15.458;2024-03-22T07:02:35;4.70;;;3.20;;
10469;SDS011;5282;47.052;15.458;2024-03-22T07:05:02;3.30;;;3.10;;
10469;SDS011;5282;47.052;15.458;2024-03-22T07:07:29;4.13;;;3.03;;
10469;SDS011;5282;47.052;15.458;2024-03-22T07:09:56;2.80;;;2.60;;
10469;SDS011;5282;47.052;15.458;2024-03-22T07:12:25;3.57;;;3.27;;
10469;SDS011;5282;47.052;15.458;2024-03-22T07:14:51;3.70;;;3.10;;
10469;SDS011;5282;47.052;15.458;2024-03-22T07:17:18;3.50;;;3.30;;
10469;SDS011;5282;47.052;15.458;2024-03-22T07:19:49;3.60;;;3.40;;
10469;SDS011;5282;47.052;15.458;2024-03-22T07:22:16;3.83;;;3.53;;
10469;SDS011;5282;47.052;15.458;2024-03-22T07:24:42;3.40;;;3.30;;
10469;SDS011;5282;47.052;15.458;2024-03-22T07:27:09;3.47;;;3.20;;
10469;SDS011;5282;47.052;15.458;2024-03-22T07:29:36;3.30;;;3.20;;
10469;SDS011;5282;47.052;15.458;2024-03-22T07:32:03;3.10;;;3.00;;
10469;SDS011;5282;47.052;15.458;2024-03-22T07:34:30;3.70;;;3.50;;
10469;SDS011;5282;47.052;15.458;2024-03-22T07:36:56;3.50;;;3.30;;
10469;SDS011;5282;47.052;15.458;2024-03-22T07:39:22;3.63;;;3.33;;
10469;SDS011;5282;47.052;15.458;2024-03-22T07:41:49;3.50;;;3.37;;
10469;SDS011;5282;47.052;15.458;2024-03-22T07:44:15;3.80;;;3.60;;
10469;SDS011;5282;47.052;15.458;2024-03-22T07:46:44;3.80;;;3.50;;
10469;SDS011;5282;47.052;15.458;2024-03-22T07:49:11;4.27;;;3.97;;
10469;SDS011;5282;47.052;15.458;2024-03-22T07:51:39;3.57;;;3.40;;
10469;SDS011;5282;47.052;15.458;2024-03-22T07:54:05;3.37;;;3.20;;
10469;SDS011;5282;47.052;15.458;2024-03-22T07:56:32;3.50;;;3.30;;
10469;SDS011;5282;47.052;15.458;2024-03-22T07:58:58;3.03;;;2.87;;
10469;SDS011;5282;47.052;15.458;2024-03-22T08:01:25;3.17;;;3.00;;
10469;SDS011;5282;47.052;15.458;2024-03-22T08:03:52;2.90;;;2.80;;
10469;SDS011;5282;47.052;15.458;2024-03-22T08:06:19;4.83;;;3.17;;
10469;SDS011;5282;47.052;15.458;2024-03-22T08:08:45;2.83;;;2.73;;
10469;SDS011;5282;47.052;15.458;2024-03-22T08:11:12;3.20;;;3.10;;
10469;SDS011;5282;47.052;15.458;2024-03-22T08:13:39;2.90;;;2.80;;
10469;SDS011;5282;47.052;15.458;2024-03-22T08:16:05;3.57;;;2.80;;
10469;SDS011;5282;47.052;15.458;2024-03-22T08:18:31;3.70;;;3.50;;
10469;SDS011;5282;47.052;15.458;2024-03-22T08:21:00;3.20;;;3.00;;
10469;SDS011;5282;47.052;15.458;2024-03-22T08:23:27;3.77;;;2.60;;
10469;SDS011;5282;47.052;15.458;2024-03-22T08:25:54;3.53;;;3.40;;
10469;SDS011;5282;47.052;15.458;2024-03-22T08:28:20;2.93;;;2.73;;
10469;SDS011;5282;47.052;15.458;2024-03-22T08:30:47;2.90;;;2.70;;
10469;SDS011;5282;47.052;15.458;2024-03-22T08:33:13;3.03;;;2.70;;
10469;SDS011;5282;47.052;15.458;2024-03-22T08:35:40;3.00;;;2.90;;
10469;SDS011;5282;47.052;15.458;2024-03-22T08:38:07;3.87;;;2.60;;
10469;SDS011;5282;47.052;15.458;2024-03-22T08:40:36;3.23;;;2.93;;
10469;SDS011;5282;47.052;15.458;2024-03-22T08:43:02;2.57;;;2.37;;
10469;SDS011;5282;47.052;15.458;2024-03-22T08:45:30;2.60;;;2.50;;
10469;SDS011;5282;47.052;15.458;2024-03-22T08:47:55;2.90;;;2.27;;
10469;SDS011;5282;47.052;15.458;2024-03-22T08:50:22;2.90;;;2.70;;
10469;SDS011;5282;47.052;15.458;2024-03-22T08:52:50;3.00;;;2.40;;
10469;SDS011;5282;47.052;15.458;2024-03-22T08:55:18;2.90;;;2.80;;
10469;SDS011;5282;47.052;15.458;2024-03-22T08:57:45;3.17;;;2.37;;
10469;SDS011;5282;47.052;15.458;2024-03-22T09:00:11;3.10;;;2.80;;
10469;SDS011;5282;47.052;15.458;2024-03-22T09:02:39;2.90;;;2.70;;
10469;SDS011;5282;47.052;15.458;2024-03-22T09:05:05;2.90;;;2.80;;
10469;SDS011;5282;47.052;15.458;2024-03-22T09:07:33;3.00;;;2.80;;
10469;SDS011;5282;47.052;15.458;2024-03-22T09:09:59;3.07;;;2.87;;
10469;SDS011;5282;47.052;15.458;2024-03-22T09:12:27;3.00;;;2.90;;
10469;SDS011;5282;47.052;15.458;2024-03-22T09:14:53;2.40;;;2.30;;
10469;SDS011;5282;47.052;15.458;2024-03-22T09:17:20;2.90;;;2.70;;
10469;SDS011;5282;47.052;15.458;2024-03-22T09:19:46;3.17;;;2.97;;
10469;SDS011;5282;47.052;15.458;2024-03-22T09:22:13;2.87;;;2.67;;
10469;SDS011;5282;47.052;15.458;2024-03-22T09:24:40;2.80;;;2.60;;
10469;SDS011;5282;47.052;15.458;2024-03-22T09:27:07;2.90;;;2.80;;
10469;SDS011;5282;47.052;15.458;2024-03-22T09:29:37;2.27;;;2.17;;
10469;SDS011;5282;47.052;15.458;2024-03-22T09:32:04;2.80;;;2.70;;
10469;SDS011;5282;47.052;15.458;2024-03-22T09:34:30;2.70;;;2.60;;
10469;SDS011;5282;47.052;15.458;2024-03-22T09:36:57;2.37;;;2.23;;
10469;SDS011;5282;47.052;15.458;2024-03-22T09:39:23;3.07;;;2.50;;
10469;SDS011;5282;47.052;15.458;2024-03-22T09:41:52;2.37;;;2.30;;
10469;SDS011;5282;47.052;15.458;2024-03-22T09:44:22;2.60;;;2.40;;
10469;SDS011;5282;47.052;15.458;2024-03-22T09:46:51;2.30;;;2.20;;
10469;SDS011;5282;47.052;15.458;2024-03-22T09:49:18;4.03;;;2.43;;
10469;SDS011;5282;47.052;15.458;2024-03-22T09:51:45;2.90;;;2.70;;
10469;SDS011;5282;47.052;15.458;2024-03-22T09:54:12;2.67;;;2.57;;
10469;SDS011;5282;47.052;15.458;2024-03-22T09:56:40;2.40;;;2.30;;
10469;SDS011;5282;47.052;15.458;2024-03-22T09:59:07;2.20;;;2.10;;
10469;SDS011;5282;47.052;15.458;2024-03-22T10:01:35;2.60;;;2.40;;
10469;SDS011;5282;47.052;15.458;2024-03-22T10:04:03;2.83;;;2.63;;
10469;SDS011;5282;47.052;15.458;2024-03-22T10:06:30;2.50;;;2.30;;
10469;SDS011;5282;47.052;15.458;2024-03-22T10:08:57;2.40;;;2.30;;
10469;SDS011;5282;47.052;15.458;2024-03-22T10:11:25;2.77;;;2.57;;
10469;SDS011;5282;47.052;15.458;2024-03-22T10:13:51;2.33;;;2.23;;
10469;SDS011;5282;47.052;15.458;2024-03-22T10:16:20;2.70;;;2.60;;
10469;SDS011;5282;47.052;15.458;2024-03-22T10:18:46;2.60;;;2.47;;
10469;SDS011;5282;47.052;15.458;2024-03-22T10:21:16;2.20;;;2.10;;
10469;SDS011;5282;47.052;15.458;2024-03-22T10:23:43;2.57;;;2.37;;
10469;SDS011;5282;47.052;15.458;2024-03-22T10:26:12;2.47;;;2.27;;
10469;SDS011;5282;47.052;15.458;2024-03-22T10:28:43;2.40;;;2.20;;
10469;SDS011;5282;47.052;15.458;2024-03-22T10:31:11;1.90;;;1.90;;
10469;SDS011;5282;47.052;15.458;2024-03-22T10:33:37;2.50;;;2.40;;
10469;SDS011;5282;47.052;15.458;2024-03-22T10:36:05;2.00;;;2.00;;
10469;SDS011;5282;47.052;15.458;2024-03-22T10:38:34;2.37;;;2.17;;
10469;SDS011;5282;47.052;15.458;2024-03-22T10:41:04;2.03;;;2.03;;
10469;SDS011;5282;47.052;15.458;2024-03-22T10:43:31;2.30;;;2.20;;
10469;SDS011;5282;47.052;15.458;2024-03-22T10:46:00;2.10;;;1.97;;
10469;SDS011;5282;47.052;15.458;2024-03-22T10:48:29;1.83;;;1.83;;
10469;SDS011;5282;47.052;15.458;2024-03-22T10:50:59;1.90;;;1.90;;
10469;SDS011;5282;47.052;15.458;2024-03-22T10:53:25;1.93;;;1.83;;
10469;SDS011;5282;47.052;15.458;2024-03-22T10:55:54;1.92;;;1.90;;
10469;SDS011;5282;47.052;15.458;2024-03-22T10:58:25;1.70;;;1.70;;
10469;SDS011;5282;47.052;15.458;2024-03-22T11:00:52;3.17;;;1.90;;
10469;SDS011;5282;47.052;15.458;2024-03-22T11:03:19;1.77;;;1.70;;
10469;SDS011;5282;47.052;15.458;2024-03-22T11:05:46;1.70;;;1.70;;
10469;SDS011;5282;47.052;15.458;2024-03-22T11:08:12;2.03;;;1.90;;
10469;SDS011;5282;47.052;15.458;2024-03-22T11:10:49;2.10;;;1.90;;
10469;SDS011;5282;47.052;15.458;2024-03-22T11:13:16;1.80;;;1.80;;
10469;SDS011;5282;47.052;15.458;2024-03-22T11:15:44;1.70;;;1.60;;
10469;SDS011;5282;47.052;15.458;2024-03-22T11:18:12;2.17;;;1.93;;
10469;SDS011;5282;47.052;15.458;2024-03-22T11:20:39;2.20;;;1.50;;
10469;SDS011;5282;47.052;15.458;2024-03-22T11:23:05;2.37;;;1.83;;
10469;SDS011;5282;47.052;15.458;2024-03-22T11:25:32;2.80;;;1.73;;
10469;SDS011;5282;47.052;15.458;2024-03-22T11:27:58;1.60;;;1.50;;
10469;SDS011;5282;47.052;15.458;2024-03-22T11:30:27;1.70;;;1.60;;
10469;SDS011;5282;47.052;15.458;2024-03-22T11:32:53;1.93;;;1.83;;
10469;SDS011;5282;47.052;15.458;2024-03-22T11:35:21;2.03;;;1.93;;
10469;SDS011;5282;47.052;15.458;2024-03-22T11:37:49;2.63;;;1.80;;
10469;SDS011;5282;47.052;15.458;2024-03-22T11:40:17;1.80;;;1.80;;
10469;SDS011;5282;47.052;15.458;2024-03-22T11:42:44;1.77;;;1.70;;
10469;SDS011;5282;47.052;15.458;2024-03-22T11:45:14;2.10;;;1.60;;
10469;SDS011;5282;47.052;15.458;2024-03-22T11:47:42;1.60;;;1.60;;
10469;SDS011;5282;47.052;15.458;2024-03-22T11:50:09;1.57;;;1.47;;
10469;SDS011;5282;47.052;15.458;2024-03-22T11:52:40;1.80;;;1.70;;
10469;SDS011;5282;47.052;15.458;2024-03-22T11:55:07;1.50;;;1.50;;
10469;SDS011;5282;47.052;15.458;2024-03-22T11:57:33;1.77;;;1.77;;
10469;SDS011;5282;47.052;15.458;2024-03-22T12:00:00;1.40;;;1.40;;
10469;SDS011;5282;47.052;15.458;2024-03-22T12:02:27;1.73;;;1.70;;
10469;SDS011;5282;47.052;15.458;2024-03-22T12:04:55;1.70;;;1.60;;
10469;SDS011;5282;47.052;15.458;2024-03-22T12:07:21;1.87;;;1.50;;
10469;SDS011;5282;47.052;15.458;2024-03-22T12:09:48;1.50;;;1.50;;
10469;SDS011;5282;47.052;15.458;2024-03-22T12:12:14;1.73;;;1.73;;
10469;SDS011;5282;47.052;15.458;2024-03-22T12:14:42;1.43;;;1.40;;
10469;SDS011;5282;47.052;15.458;2024-03-22T12:17:09;1.70;;;1.70;;
10469;SDS011;5282;47.052;15.458;2024-03-22T12:19:36;1.40;;;1.40;;
10469;SDS011;5282;47.052;15.458;2024-03-22T12:22:04;1.63;;;1.53;;
10469;SDS011;5282;47.052;15.458;2024-03-22T12:24:31;1.30;;;1.30;;
10469;SDS011;5282;47.052;15.458;2024-03-22T12:26:58;1.63;;;1.60;;
10469;SDS011;5282;47.052;15.458;2024-03-22T12:29:24;1.70;;;1.57;;
10469;SDS011;5282;47.052;15.458;2024-03-22T12:31:50;1.70;;;1.60;;
10469;SDS011;5282;47.052;15.458;2024-03-22T12:34:18;1.57;;;1.50;;
10469;SDS011;5282;47.052;15.458;2024-03-22T12:36:43;1.53;;;1.50;;
10469;SDS011;5282;47.052;15.458;2024-03-22T12:39:12;1.50;;;1.50;;
10469;SDS011;5282;47.052;15.458;2024-03-22T12:41:38;1.57;;;1.30;;
10469;SDS011;5282;47.052;15.458;2024-03-22T12:44:04;1.40;;;1.40;;
10469;SDS011;5282;47.052;15.458;2024-03-22T12:46:30;1.37;;;1.30;;
10469;SDS011;5282;47.052;15.458;2024-03-22T12:48:57;1.23;;;1.23;;
10469;SDS011;5282;47.052;15.458;2024-03-22T12:51:23;1.67;;;1.57;;
10469;SDS011;5282;47.052;15.458;2024-03-22T12:53:50;1.50;;;1.50;;
10469;SDS011;5282;47.052;15.458;2024-03-22T12:56:17;1.50;;;1.40;;
10469;SDS011;5282;47.052;15.458;2024-03-22T12:58:44;1.60;;;1.60;;
10469;SDS011;5282;47.052;15.458;2024-03-22T13:01:10;1.67;;;1.67;;
10469;SDS011;5282;47.052;15.458;2024-03-22T13:03:37;1.13;;;1.13;;
10469;SDS011;5282;47.052;15.458;2024-03-22T13:06:03;1.50;;;1.40;;
10469;SDS011;5282;47.052;15.458;2024-03-22T13:08:30;1.67;;;1.60;;
10469;SDS011;5282;47.052;15.458;2024-03-22T13:10:56;1.30;;;1.30;;
10469;SDS011;5282;47.052;15.458;2024-03-22T13:13:24;1.40;;;1.40;;
10469;SDS011;5282;47.052;15.458;2024-03-22T13:15:50;1.70;;;1.60;;
10469;SDS011;5282;47.052;15.458;2024-03-22T13:18:17;1.53;;;1.43;;
10469;SDS011;5282;47.052;15.458;2024-03-22T13:20:46;1.30;;;1.30;;
10469;SDS011;5282;47.052;15.458;2024-03-22T13:23:13;1.43;;;1.43;;
10469;SDS011;5282;47.052;15.458;2024-03-22T13:25:39;1.80;;;1.70;;
10469;SDS011;5282;47.052;15.458;2024-03-22T13:28:07;1.47;;;1.37;;
10469;SDS011;5282;47.052;15.458;2024-03-22T13:30:34;1.50;;;1.50;;
10469;SDS011;5282;47.052;15.458;2024-03-22T13:33:02;1.50;;;1.50;;
10469;SDS011;5282;47.052;15.458;2024-03-22T13:35:29;1.53;;;1.43;;
10469;SDS011;5282;47.052;15.458;2024-03-22T13:37:56;1.60;;;1.60;;
10469;SDS011;5282;47.052;15.458;2024-03-22T13:40:21;1.37;;;1.37;;
10469;SDS011;5282;47.052;15.458;2024-03-22T13:42:48;1.40;;;1.40;;
10469;SDS011;5282;47.052;15.458;2024-03-22T13:45:18;1.40;;;1.40;;
10469;SDS011;5282;47.052;15.458;2024-03-22T13:47:47;1.47;;;1.40;;
10469;SDS011;5282;47.052;15.458;2024-03-22T13:50:13;2.00;;;1.53;;
10469;SDS011;5282;47.052;15.458;2024-03-22T13:52:42;1.50;;;1.50;;
10469;SDS011;5282;47.052;15.458;2024-03-22T13:55:08;1.53;;;1.43;;
10469;SDS011;5282;47.052;15.458;2024-03-22T13:57:35;1.30;;;1.20;;
10469;SDS011;5282;47.052;15.458;2024-03-22T14:00:01;1.80;;;1.47;;
10469;SDS011;5282;47.052;15.458;2024-03-22T14:02:32;1.50;;;1.50;;
10469;SDS011;5282;47.052;15.458;2024-03-22T14:04:59;1.63;;;1.60;;
10469;SDS011;5282;47.052;15.458;2024-03-22T14:07:27;1.50;;;1.50;;
10469;SDS011;5282;47.052;15.458;2024-03-22T14:09:53;1.90;;;1.80;;
10469;SDS011;5282;47.052;15.458;2024-03-22T14:12:20;1.57;;;1.27;;
10469;SDS011;5282;47.052;15.458;2024-03-22T14:14:46;1.50;;;1.50;;
10469;SDS011;5282;47.052;15.458;2024-03-22T14:17:14;1.53;;;1.43;;
10469;SDS011;5282;47.052;15.458;2024-03-22T14:19:39;1.37;;;1.37;;
10469;SDS011;5282;47.052;15.458;2024-03-22T14:22:08;1.53;;;1.43;;
10469;SDS011;5282;47.052;15.458;2024-03-22T14:24:34;1.50;;;1.50;;
10469;SDS011;5282;47.052;15.458;2024-03-22T14:27:00;1.30;;;1.30;;
10469;SDS011;5282;47.052;15.458;2024-03-22T14:29:26;1.80;;;1.53;;
10469;SDS011;5282;47.052;15.458;2024-03-22T14:31:53;2.63;;;1.40;;
10469;SDS011;5282;47.052;15.458;2024-03-22T14:34:21;1.47;;;1.47;;
10469;SDS011;5282;47.052;15.458;2024-03-22T14:36:48;1.30;;;1.30;;
10469;SDS011;5282;47.052;15.458;2024-03-22T14:39:15;1.40;;;1.30;;
10469;SDS011;5282;47.052;15.458;2024-03-22T14:41:41;1.40;;;1.40;;
10469;SDS011;5282;47.052;15.458;2024-03-22T14:44:08;1.57;;;1.57;;
10469;SDS011;5282;47.052;15.458;2024-03-22T14:46:35;1.50;;;1.50;;
10469;SDS011;5282;47.052;15.458;2024-03-22T14:49:00;1.50;;;1.40;;